sensor_id;sensor_type;location;lat;lon;timestamp;P1;durP1;ratioP1;P2;durP2;ratioP2
64110;SDS011;50401;48.188;11.566;2023-02-26T00:01:18;8.02;;;2.65;;
64110;SDS011;50401;48.188;11.566;2023-02-26T00:03:53;5.80;;;2.90;;
64110;SDS011;50401;48.188;11.566;2023-02-26T00:06:20;3.33;;;2.45;;
64110;SDS011;50401;48.188;11.566;2023-02-26T00:08:47;5.57;;;2.95;;
64110;SDS011;50401;48.188;11.566;2023-02-26T00:11:12;8.18;;;2.90;;
64110;SDS011;50401;48.188;11.566;2023-02-26T00:13:39;6.70;;;2.80;;
64110;SDS011;50401;48.188;11.566;2023-02-26T00:19:00;4.55;;;2.90;;
64110;SDS011;50401;48.188;11.566;2023-02-26T00:21:29;4.20;;;2.47;;
64110;SDS011;50401;48.188;11.566;2023-02-26T00:23:55;2.67;;;2.40;;
64110;SDS011;50401;48.188;11.566;2023-02-26T00:26:21;4.65;;;2.75;;
64110;SDS011;50401;48.188;11.566;2023-02-26T00:28:49;8.52;;;3.47;;
64110;SDS011;50401;48.188;11.566;2023-02-26T00:31:15;8.13;;;3.17;;
64110;SDS011;50401;48.188;11.566;2023-02-26T00:33:41;7.85;;;3.40;;
64110;SDS011;50401;48.188;11.566;2023-02-26T00:38:44;5.60;;;2.78;;
64110;SDS011;50401;48.188;11.566;2023-02-26T00:41:17;3.85;;;2.80;;
64110;SDS011;50401;48.188;11.566;2023-02-26T00:43:43;4.10;;;2.72;;
64110;SDS011;50401;48.188;11.566;2023-02-26T00:54:01;5.45;;;2.63;;
64110;SDS011;50401;48.188;11.566;2023-02-26T00:57:00;3.10;;;2.10;;
64110;SDS011;50401;48.188;11.566;2023-02-26T00:59:28;5.88;;;3.00;;
64110;SDS011;50401;48.188;11.566;2023-02-26T01:01:53;5.40;;;2.28;;
64110;SDS011;50401;48.188;11.566;2023-02-26T01:04:19;3.40;;;2.42;;
64110;SDS011;50401;48.188;11.566;2023-02-26T01:06:47;4.03;;;2.67;;
64110;SDS011;50401;48.188;11.566;2023-02-26T01:09:17;2.70;;;2.20;;
64110;SDS011;50401;48.188;11.566;2023-02-26T01:11:49;2.10;;;1.90;;
64110;SDS011;50401;48.188;11.566;2023-02-26T01:14:15;3.13;;;2.08;;
64110;SDS011;50401;48.188;11.566;2023-02-26T01:16:47;3.67;;;2.45;;
64110;SDS011;50401;48.188;11.566;2023-02-26T01:19:22;3.15;;;1.80;;
64110;SDS011;50401;48.188;11.566;2023-02-26T01:21:50;3.75;;;2.40;;
64110;SDS011;50401;48.188;11.566;2023-02-26T01:24:24;3.38;;;2.28;;
64110;SDS011;50401;48.188;11.566;2023-02-26T01:26:51;5.63;;;2.65;;
64110;SDS011;50401;48.188;11.566;2023-02-26T01:29:16;2.67;;;2.00;;
64110;SDS011;50401;48.188;11.566;2023-02-26T01:31:49;3.45;;;2.35;;
64110;SDS011;50401;48.188;11.566;2023-02-26T01:34:25;5.35;;;2.67;;
64110;SDS011;50401;48.188;11.566;2023-02-26T01:39:48;6.78;;;2.67;;
64110;SDS011;50401;48.188;11.566;2023-02-26T01:42:38;5.30;;;3.05;;
64110;SDS011;50401;48.188;11.566;2023-02-26T01:47:44;3.88;;;2.22;;
64110;SDS011;50401;48.188;11.566;2023-02-26T01:50:17;5.30;;;2.30;;
64110;SDS011;50401;48.188;11.566;2023-02-26T01:53:29;7.22;;;2.95;;
64110;SDS011;50401;48.188;11.566;2023-02-26T01:55:44;5.68;;;2.13;;
64110;SDS011;50401;48.188;11.566;2023-02-26T01:58:14;5.72;;;2.47;;
64110;SDS011;50401;48.188;11.566;2023-02-26T02:00:41;6.90;;;2.72;;
64110;SDS011;50401;48.188;11.566;2023-02-26T02:03:06;7.85;;;2.80;;
64110;SDS011;50401;48.188;11.566;2023-02-26T02:08:19;7.63;;;2.90;;
64110;SDS011;50401;48.188;11.566;2023-02-26T02:10:46;2.78;;;1.98;;
64110;SDS011;50401;48.188;11.566;2023-02-26T02:13:24;3.85;;;2.08;;
64110;SDS011;50401;48.188;11.566;2023-02-26T02:16:04;8.43;;;2.40;;
64110;SDS011;50401;48.188;11.566;2023-02-26T02:27:18;2.65;;;2.10;;
64110;SDS011;50401;48.188;11.566;2023-02-26T02:32:43;8.27;;;3.63;;
64110;SDS011;50401;48.188;11.566;2023-02-26T02:35:20;9.30;;;3.35;;
64110;SDS011;50401;48.188;11.566;2023-02-26T02:37:54;6.70;;;2.40;;
64110;SDS011;50401;48.188;11.566;2023-02-26T02:40:25;3.70;;;2.33;;
64110;SDS011;50401;48.188;11.566;2023-02-26T02:43:02;8.25;;;2.65;;
64110;SDS011;50401;48.188;11.566;2023-02-26T02:48:03;6.75;;;2.65;;
64110;SDS011;50401;48.188;11.566;2023-02-26T02:50:38;9.45;;;2.75;;
64110;SDS011;50401;48.188;11.566;2023-02-26T02:56:16;8.25;;;2.17;;
64110;SDS011;50401;48.188;11.566;2023-02-26T02:59:28;8.25;;;2.53;;
64110;SDS011;50401;48.188;11.566;2023-02-26T03:01:43;9.38;;;2.20;;
64110;SDS011;50401;48.188;11.566;2023-02-26T03:04:10;4.93;;;2.65;;
64110;SDS011;50401;48.188;11.566;2023-02-26T03:09:05;4.15;;;1.90;;
64110;SDS011;50401;48.188;11.566;2023-02-26T03:11:32;5.63;;;2.15;;
64110;SDS011;50401;48.188;11.566;2023-02-26T03:13:58;4.47;;;2.30;;
64110;SDS011;50401;48.188;11.566;2023-02-26T03:24:27;9.85;;;2.42;;
64110;SDS011;50401;48.188;11.566;2023-02-26T03:27:12;3.70;;;2.30;;
64110;SDS011;50401;48.188;11.566;2023-02-26T03:29:48;5.00;;;2.35;;
64110;SDS011;50401;48.188;11.566;2023-02-26T03:32:28;8.38;;;1.90;;
64110;SDS011;50401;48.188;11.566;2023-02-26T03:35:05;6.85;;;2.20;;
64110;SDS011;50401;48.188;11.566;2023-02-26T03:37:38;5.22;;;2.13;;
64110;SDS011;50401;48.188;11.566;2023-02-26T03:40:09;8.15;;;2.33;;
64110;SDS011;50401;48.188;11.566;2023-02-26T03:42:45;6.53;;;1.83;;
64110;SDS011;50401;48.188;11.566;2023-02-26T03:45:16;13.52;;;2.30;;
64110;SDS011;50401;48.188;11.566;2023-02-26T03:47:45;3.70;;;2.05;;
64110;SDS011;50401;48.188;11.566;2023-02-26T03:53:11;9.65;;;3.40;;
64110;SDS011;50401;48.188;11.566;2023-02-26T03:58:11;7.05;;;2.20;;
64110;SDS011;50401;48.188;11.566;2023-02-26T04:00:37;6.00;;;2.25;;
64110;SDS011;50401;48.188;11.566;2023-02-26T04:05:56;6.05;;;2.15;;
64110;SDS011;50401;48.188;11.566;2023-02-26T04:08:24;5.60;;;2.40;;
64110;SDS011;50401;48.188;11.566;2023-02-26T04:10:52;10.95;;;2.72;;
64110;SDS011;50401;48.188;11.566;2023-02-26T04:13:20;7.65;;;2.50;;
64110;SDS011;50401;48.188;11.566;2023-02-26T04:15:46;10.15;;;2.80;;
64110;SDS011;50401;48.188;11.566;2023-02-26T04:18:11;12.63;;;2.60;;
64110;SDS011;50401;48.188;11.566;2023-02-26T04:20:36;12.02;;;2.50;;
64110;SDS011;50401;48.188;11.566;2023-02-26T04:23:02;6.40;;;1.98;;
64110;SDS011;50401;48.188;11.566;2023-02-26T04:25:27;6.72;;;2.45;;
64110;SDS011;50401;48.188;11.566;2023-02-26T04:27:53;6.63;;;2.65;;
64110;SDS011;50401;48.188;11.566;2023-02-26T04:30:18;21.13;;;2.47;;
64110;SDS011;50401;48.188;11.566;2023-02-26T04:32:44;9.20;;;2.58;;
64110;SDS011;50401;48.188;11.566;2023-02-26T04:35:09;11.27;;;2.53;;
64110;SDS011;50401;48.188;11.566;2023-02-26T04:37:35;5.10;;;2.28;;
64110;SDS011;50401;48.188;11.566;2023-02-26T04:40:00;6.80;;;2.47;;
64110;SDS011;50401;48.188;11.566;2023-02-26T04:42:25;5.00;;;2.55;;
64110;SDS011;50401;48.188;11.566;2023-02-26T04:44:51;6.90;;;2.05;;
64110;SDS011;50401;48.188;11.566;2023-02-26T04:47:16;8.07;;;2.90;;
64110;SDS011;50401;48.188;11.566;2023-02-26T04:49:41;5.95;;;3.38;;
64110;SDS011;50401;48.188;11.566;2023-02-26T04:52:07;10.35;;;2.53;;
64110;SDS011;50401;48.188;11.566;2023-02-26T04:54:32;6.55;;;2.33;;
64110;SDS011;50401;48.188;11.566;2023-02-26T04:56:58;4.43;;;2.53;;
64110;SDS011;50401;48.188;11.566;2023-02-26T04:59:23;11.95;;;2.63;;
64110;SDS011;50401;48.188;11.566;2023-02-26T05:01:48;8.65;;;2.53;;
64110;SDS011;50401;48.188;11.566;2023-02-26T05:04:14;9.65;;;2.35;;
64110;SDS011;50401;48.188;11.566;2023-02-26T05:06:39;10.25;;;3.05;;
64110;SDS011;50401;48.188;11.566;2023-02-26T05:09:06;10.02;;;2.72;;
64110;SDS011;50401;48.188;11.566;2023-02-26T05:11:31;6.32;;;2.20;;
64110;SDS011;50401;48.188;11.566;2023-02-26T05:13:56;5.90;;;1.80;;
64110;SDS011;50401;48.188;11.566;2023-02-26T05:16:22;10.65;;;2.55;;
64110;SDS011;50401;48.188;11.566;2023-02-26T05:18:47;8.95;;;2.42;;
64110;SDS011;50401;48.188;11.566;2023-02-26T05:21:12;5.43;;;2.20;;
64110;SDS011;50401;48.188;11.566;2023-02-26T05:23:38;6.03;;;2.30;;
64110;SDS011;50401;48.188;11.566;2023-02-26T05:26:03;12.45;;;2.53;;
64110;SDS011;50401;48.188;11.566;2023-02-26T05:28:29;11.13;;;3.55;;
64110;SDS011;50401;48.188;11.566;2023-02-26T05:30:55;8.02;;;2.25;;
64110;SDS011;50401;48.188;11.566;2023-02-26T05:33:21;7.32;;;3.42;;
64110;SDS011;50401;48.188;11.566;2023-02-26T05:35:47;6.78;;;2.22;;
64110;SDS011;50401;48.188;11.566;2023-02-26T05:38:13;10.23;;;2.33;;
64110;SDS011;50401;48.188;11.566;2023-02-26T05:40:38;4.82;;;2.25;;
64110;SDS011;50401;48.188;11.566;2023-02-26T05:43:03;10.85;;;2.30;;
64110;SDS011;50401;48.188;11.566;2023-02-26T05:45:29;11.18;;;2.35;;
64110;SDS011;50401;48.188;11.566;2023-02-26T05:47:54;4.60;;;2.10;;
64110;SDS011;50401;48.188;11.566;2023-02-26T05:50:20;5.50;;;2.10;;
64110;SDS011;50401;48.188;11.566;2023-02-26T05:52:45;12.10;;;2.20;;
64110;SDS011;50401;48.188;11.566;2023-02-26T05:55:11;9.07;;;2.30;;
64110;SDS011;50401;48.188;11.566;2023-02-26T05:57:36;8.75;;;2.30;;
64110;SDS011;50401;48.188;11.566;2023-02-26T06:00:03;11.82;;;2.90;;
64110;SDS011;50401;48.188;11.566;2023-02-26T06:02:29;9.75;;;2.97;;
64110;SDS011;50401;48.188;11.566;2023-02-26T06:04:55;11.45;;;2.05;;
64110;SDS011;50401;48.188;11.566;2023-02-26T06:07:20;9.77;;;2.85;;
64110;SDS011;50401;48.188;11.566;2023-02-26T06:09:46;9.98;;;2.60;;
64110;SDS011;50401;48.188;11.566;2023-02-26T06:12:11;10.13;;;2.55;;
64110;SDS011;50401;48.188;11.566;2023-02-26T06:14:36;5.05;;;1.92;;
64110;SDS011;50401;48.188;11.566;2023-02-26T06:17:03;10.80;;;2.58;;
64110;SDS011;50401;48.188;11.566;2023-02-26T06:19:28;12.50;;;3.95;;
64110;SDS011;50401;48.188;11.566;2023-02-26T06:21:54;3.92;;;2.30;;
64110;SDS011;50401;48.188;11.566;2023-02-26T06:24:19;12.57;;;3.10;;
64110;SDS011;50401;48.188;11.566;2023-02-26T06:26:44;7.88;;;2.78;;
64110;SDS011;50401;48.188;11.566;2023-02-26T06:29:10;4.63;;;2.20;;
64110;SDS011;50401;48.188;11.566;2023-02-26T06:31:36;9.23;;;2.75;;
64110;SDS011;50401;48.188;11.566;2023-02-26T06:34:01;3.92;;;1.98;;
64110;SDS011;50401;48.188;11.566;2023-02-26T06:36:26;5.85;;;2.70;;
64110;SDS011;50401;48.188;11.566;2023-02-26T06:38:52;15.48;;;2.33;;
64110;SDS011;50401;48.188;11.566;2023-02-26T06:41:17;5.10;;;2.20;;
64110;SDS011;50401;48.188;11.566;2023-02-26T06:43:43;8.93;;;2.60;;
64110;SDS011;50401;48.188;11.566;2023-02-26T06:46:08;7.85;;;2.65;;
64110;SDS011;50401;48.188;11.566;2023-02-26T06:48:33;3.80;;;2.05;;
64110;SDS011;50401;48.188;11.566;2023-02-26T06:50:59;6.50;;;2.47;;
64110;SDS011;50401;48.188;11.566;2023-02-26T06:53:24;7.00;;;2.53;;
64110;SDS011;50401;48.188;11.566;2023-02-26T06:55:51;14.93;;;3.53;;
64110;SDS011;50401;48.188;11.566;2023-02-26T06:58:17;19.30;;;3.15;;
64110;SDS011;50401;48.188;11.566;2023-02-26T07:00:42;7.20;;;2.35;;
64110;SDS011;50401;48.188;11.566;2023-02-26T07:03:12;16.45;;;2.97;;
64110;SDS011;50401;48.188;11.566;2023-02-26T07:05:38;15.90;;;3.42;;
64110;SDS011;50401;48.188;11.566;2023-02-26T07:08:04;6.45;;;2.38;;
64110;SDS011;50401;48.188;11.566;2023-02-26T07:10:33;10.80;;;2.85;;
64110;SDS011;50401;48.188;11.566;2023-02-26T07:12:59;12.20;;;2.85;;
64110;SDS011;50401;48.188;11.566;2023-02-26T07:15:25;8.18;;;2.53;;
64110;SDS011;50401;48.188;11.566;2023-02-26T07:17:51;7.22;;;2.47;;
64110;SDS011;50401;48.188;11.566;2023-02-26T07:20:16;12.38;;;2.72;;
64110;SDS011;50401;48.188;11.566;2023-02-26T07:22:42;11.95;;;3.00;;
64110;SDS011;50401;48.188;11.566;2023-02-26T07:25:08;11.93;;;2.85;;
64110;SDS011;50401;48.188;11.566;2023-02-26T07:27:34;6.65;;;3.00;;
64110;SDS011;50401;48.188;11.566;2023-02-26T07:29:59;6.13;;;2.72;;
64110;SDS011;50401;48.188;11.566;2023-02-26T07:32:25;8.65;;;2.92;;
64110;SDS011;50401;48.188;11.566;2023-02-26T07:34:50;7.35;;;3.33;;
64110;SDS011;50401;48.188;11.566;2023-02-26T07:37:16;5.53;;;2.47;;
64110;SDS011;50401;48.188;11.566;2023-02-26T07:39:41;8.00;;;2.53;;
64110;SDS011;50401;48.188;11.566;2023-02-26T07:42:07;8.38;;;3.28;;
64110;SDS011;50401;48.188;11.566;2023-02-26T07:44:33;6.38;;;2.55;;
64110;SDS011;50401;48.188;11.566;2023-02-26T07:46:58;9.88;;;2.45;;
64110;SDS011;50401;48.188;11.566;2023-02-26T07:49:24;7.80;;;2.70;;
64110;SDS011;50401;48.188;11.566;2023-02-26T07:51:49;13.13;;;2.58;;
64110;SDS011;50401;48.188;11.566;2023-02-26T07:54:14;6.10;;;2.88;;
64110;SDS011;50401;48.188;11.566;2023-02-26T07:56:40;8.32;;;2.42;;
64110;SDS011;50401;48.188;11.566;2023-02-26T07:59:07;7.85;;;2.80;;
64110;SDS011;50401;48.188;11.566;2023-02-26T08:01:33;4.57;;;2.22;;
64110;SDS011;50401;48.188;11.566;2023-02-26T08:03:59;4.35;;;2.20;;
64110;SDS011;50401;48.188;11.566;2023-02-26T08:06:24;11.77;;;2.70;;
64110;SDS011;50401;48.188;11.566;2023-02-26T08:08:50;7.45;;;2.60;;
64110;SDS011;50401;48.188;11.566;2023-02-26T08:11:15;11.07;;;3.40;;
64110;SDS011;50401;48.188;11.566;2023-02-26T08:13:41;7.47;;;3.40;;
64110;SDS011;50401;48.188;11.566;2023-02-26T08:16:06;7.50;;;3.20;;
64110;SDS011;50401;48.188;11.566;2023-02-26T08:18:31;5.55;;;3.35;;
64110;SDS011;50401;48.188;11.566;2023-02-26T08:20:57;10.48;;;3.25;;
64110;SDS011;50401;48.188;11.566;2023-02-26T08:23:22;10.45;;;4.40;;
64110;SDS011;50401;48.188;11.566;2023-02-26T08:25:47;13.63;;;3.72;;
64110;SDS011;50401;48.188;11.566;2023-02-26T08:28:14;9.45;;;2.72;;
64110;SDS011;50401;48.188;11.566;2023-02-26T08:30:39;5.60;;;3.42;;
64110;SDS011;50401;48.188;11.566;2023-02-26T08:33:05;9.13;;;3.63;;
64110;SDS011;50401;48.188;11.566;2023-02-26T08:35:30;6.82;;;2.75;;
64110;SDS011;50401;48.188;11.566;2023-02-26T08:37:56;6.88;;;2.85;;
64110;SDS011;50401;48.188;11.566;2023-02-26T08:40:21;8.80;;;3.42;;
64110;SDS011;50401;48.188;11.566;2023-02-26T08:42:47;7.28;;;3.03;;
64110;SDS011;50401;48.188;11.566;2023-02-26T08:45:12;12.13;;;3.80;;
64110;SDS011;50401;48.188;11.566;2023-02-26T08:47:38;8.00;;;3.42;;
64110;SDS011;50401;48.188;11.566;2023-02-26T08:50:05;9.77;;;3.75;;
64110;SDS011;50401;48.188;11.566;2023-02-26T08:52:31;7.03;;;3.58;;
64110;SDS011;50401;48.188;11.566;2023-02-26T08:54:57;29.65;;;9.85;;
64110;SDS011;50401;48.188;11.566;2023-02-26T08:57:23;9.55;;;3.65;;
64110;SDS011;50401;48.188;11.566;2023-02-26T08:59:48;9.15;;;3.95;;
64110;SDS011;50401;48.188;11.566;2023-02-26T09:02:14;7.70;;;2.85;;
64110;SDS011;50401;48.188;11.566;2023-02-26T09:04:39;6.80;;;3.85;;
64110;SDS011;50401;48.188;11.566;2023-02-26T09:07:05;8.05;;;3.70;;
64110;SDS011;50401;48.188;11.566;2023-02-26T09:09:30;6.22;;;3.58;;
64110;SDS011;50401;48.188;11.566;2023-02-26T09:11:56;10.80;;;3.80;;
64110;SDS011;50401;48.188;11.566;2023-02-26T09:14:22;8.43;;;3.90;;
64110;SDS011;50401;48.188;11.566;2023-02-26T09:16:48;6.63;;;3.22;;
64110;SDS011;50401;48.188;11.566;2023-02-26T09:19:13;9.52;;;4.20;;
64110;SDS011;50401;48.188;11.566;2023-02-26T09:21:39;8.23;;;3.88;;
64110;SDS011;50401;48.188;11.566;2023-02-26T09:24:05;7.50;;;3.10;;
64110;SDS011;50401;48.188;11.566;2023-02-26T09:26:30;8.25;;;3.90;;
64110;SDS011;50401;48.188;11.566;2023-02-26T09:28:56;8.00;;;3.90;;
64110;SDS011;50401;48.188;11.566;2023-02-26T09:31:21;7.40;;;4.45;;
64110;SDS011;50401;48.188;11.566;2023-02-26T09:33:47;7.43;;;4.25;;
64110;SDS011;50401;48.188;11.566;2023-02-26T09:36:12;7.38;;;3.92;;
64110;SDS011;50401;48.188;11.566;2023-02-26T09:38:38;14.85;;;4.13;;
64110;SDS011;50401;48.188;11.566;2023-02-26T09:41:17;8.07;;;4.18;;
64110;SDS011;50401;48.188;11.566;2023-02-26T09:44:00;14.15;;;4.05;;
64110;SDS011;50401;48.188;11.566;2023-02-26T09:54:57;9.98;;;4.30;;
64110;SDS011;50401;48.188;11.566;2023-02-26T09:57:28;6.55;;;4.00;;
64110;SDS011;50401;48.188;11.566;2023-02-26T09:59:58;10.73;;;4.97;;
64110;SDS011;50401;48.188;11.566;2023-02-26T10:05:03;8.40;;;4.97;;
64110;SDS011;50401;48.188;11.566;2023-02-26T10:07:58;7.10;;;4.20;;
64110;SDS011;50401;48.188;11.566;2023-02-26T10:10:34;7.68;;;4.22;;
64110;SDS011;50401;48.188;11.566;2023-02-26T10:13:08;14.60;;;4.82;;
64110;SDS011;50401;48.188;11.566;2023-02-26T10:15:56;8.15;;;5.22;;
64110;SDS011;50401;48.188;11.566;2023-02-26T10:18:31;7.00;;;4.65;;
64110;SDS011;50401;48.188;11.566;2023-02-26T10:23:43;8.80;;;4.88;;
64110;SDS011;50401;48.188;11.566;2023-02-26T10:28:56;7.68;;;4.80;;
64110;SDS011;50401;48.188;11.566;2023-02-26T10:36:39;8.20;;;5.53;;
64110;SDS011;50401;48.188;11.566;2023-02-26T10:42:01;10.52;;;6.53;;
64110;SDS011;50401;48.188;11.566;2023-02-26T10:44:37;9.07;;;4.63;;
64110;SDS011;50401;48.188;11.566;2023-02-26T10:47:09;7.10;;;4.75;;
64110;SDS011;50401;48.188;11.566;2023-02-26T10:50:00;9.05;;;4.70;;
64110;SDS011;50401;48.188;11.566;2023-02-26T10:52:30;10.13;;;4.82;;
64110;SDS011;50401;48.188;11.566;2023-02-26T10:57:49;12.52;;;5.75;;
64110;SDS011;50401;48.188;11.566;2023-02-26T11:00:19;7.28;;;3.83;;
64110;SDS011;50401;48.188;11.566;2023-02-26T11:02:45;4.32;;;3.20;;
64110;SDS011;50401;48.188;11.566;2023-02-26T11:05:25;9.85;;;4.70;;
64110;SDS011;50401;48.188;11.566;2023-02-26T11:07:54;7.57;;;4.50;;
64110;SDS011;50401;48.188;11.566;2023-02-26T11:10:23;6.25;;;4.07;;
64110;SDS011;50401;48.188;11.566;2023-02-26T11:12:52;7.20;;;4.43;;
64110;SDS011;50401;48.188;11.566;2023-02-26T11:15:21;14.32;;;4.82;;
64110;SDS011;50401;48.188;11.566;2023-02-26T11:17:52;7.70;;;4.15;;
64110;SDS011;50401;48.188;11.566;2023-02-26T11:22:51;7.72;;;3.90;;
64110;SDS011;50401;48.188;11.566;2023-02-26T11:25:22;6.43;;;4.05;;
64110;SDS011;50401;48.188;11.566;2023-02-26T11:27:50;5.95;;;3.47;;
64110;SDS011;50401;48.188;11.566;2023-02-26T11:30:24;6.22;;;3.95;;
64110;SDS011;50401;48.188;11.566;2023-02-26T11:32:52;5.65;;;4.03;;
64110;SDS011;50401;48.188;11.566;2023-02-26T11:35:21;5.15;;;3.25;;
64110;SDS011;50401;48.188;11.566;2023-02-26T11:37:55;3.53;;;3.00;;
64110;SDS011;50401;48.188;11.566;2023-02-26T11:43:06;7.05;;;3.20;;
64110;SDS011;50401;48.188;11.566;2023-02-26T11:45:38;6.00;;;3.67;;
64110;SDS011;50401;48.188;11.566;2023-02-26T11:48:10;6.13;;;3.38;;
64110;SDS011;50401;48.188;11.566;2023-02-26T11:50:45;5.35;;;3.55;;
64110;SDS011;50401;48.188;11.566;2023-02-26T11:53:17;2.58;;;2.28;;
64110;SDS011;50401;48.188;11.566;2023-02-26T11:55:45;4.90;;;3.50;;
64110;SDS011;50401;48.188;11.566;2023-02-26T11:58:17;4.53;;;3.03;;
64110;SDS011;50401;48.188;11.566;2023-02-26T12:00:45;3.97;;;2.92;;
64110;SDS011;50401;48.188;11.566;2023-02-26T12:03:21;4.57;;;3.53;;
64110;SDS011;50401;48.188;11.566;2023-02-26T12:05:50;8.13;;;2.95;;
64110;SDS011;50401;48.188;11.566;2023-02-26T12:08:24;15.07;;;4.50;;
64110;SDS011;50401;48.188;11.566;2023-02-26T12:37:06;3.70;;;2.58;;
64110;SDS011;50401;48.188;11.566;2023-02-26T12:45:33;5.65;;;2.42;;
64110;SDS011;50401;48.188;11.566;2023-02-26T12:48:06;3.50;;;2.42;;
64110;SDS011;50401;48.188;11.566;2023-02-26T12:50:57;4.28;;;2.60;;
64110;SDS011;50401;48.188;11.566;2023-02-26T12:53:41;4.43;;;2.38;;
64110;SDS011;50401;48.188;11.566;2023-02-26T12:56:34;6.70;;;2.40;;
64110;SDS011;50401;48.188;11.566;2023-02-26T12:59:11;3.03;;;2.00;;
64110;SDS011;50401;48.188;11.566;2023-02-26T13:07:18;2.83;;;2.50;;
64110;SDS011;50401;48.188;11.566;2023-02-26T13:20:32;4.07;;;2.60;;
64110;SDS011;50401;48.188;11.566;2023-02-26T13:23:20;3.20;;;2.33;;
64110;SDS011;50401;48.188;11.566;2023-02-26T13:26:22;5.53;;;2.70;;
64110;SDS011;50401;48.188;11.566;2023-02-26T13:28:47;6.85;;;2.65;;
64110;SDS011;50401;48.188;11.566;2023-02-26T13:31:20;11.98;;;3.28;;
64110;SDS011;50401;48.188;11.566;2023-02-26T13:33:50;5.65;;;3.17;;
64110;SDS011;50401;48.188;11.566;2023-02-26T13:36:16;5.63;;;3.00;;
64110;SDS011;50401;48.188;11.566;2023-02-26T13:52:29;8.10;;;3.88;;
64110;SDS011;50401;48.188;11.566;2023-02-26T13:54:56;6.95;;;3.20;;
64110;SDS011;50401;48.188;11.566;2023-02-26T14:00:25;8.90;;;2.10;;
64110;SDS011;50401;48.188;11.566;2023-02-26T14:13:22;3.97;;;2.78;;
64110;SDS011;50401;48.188;11.566;2023-02-26T14:23:49;5.18;;;2.45;;
64110;SDS011;50401;48.188;11.566;2023-02-26T14:26:20;5.43;;;2.97;;
64110;SDS011;50401;48.188;11.566;2023-02-26T14:34:30;3.85;;;2.40;;
64110;SDS011;50401;48.188;11.566;2023-02-26T14:37:00;5.82;;;2.88;;
64110;SDS011;50401;48.188;11.566;2023-02-26T14:42:36;8.25;;;2.33;;
64110;SDS011;50401;48.188;11.566;2023-02-26T14:47:35;3.35;;;1.98;;
64110;SDS011;50401;48.188;11.566;2023-02-26T14:50:01;3.40;;;1.77;;
64110;SDS011;50401;48.188;11.566;2023-02-26T14:52:31;31.08;;;1.83;;
64110;SDS011;50401;48.188;11.566;2023-02-26T15:01:13;3.67;;;1.85;;
64110;SDS011;50401;48.188;11.566;2023-02-26T15:06:45;2.92;;;1.70;;
64110;SDS011;50401;48.188;11.566;2023-02-26T15:22:37;10.15;;;2.55;;
64110;SDS011;50401;48.188;11.566;2023-02-26T15:25:07;7.65;;;2.60;;
64110;SDS011;50401;48.188;11.566;2023-02-26T15:27:42;3.58;;;2.13;;
64110;SDS011;50401;48.188;11.566;2023-02-26T15:30:11;4.47;;;2.53;;
64110;SDS011;50401;48.188;11.566;2023-02-26T15:32:39;3.55;;;2.35;;
64110;SDS011;50401;48.188;11.566;2023-02-26T15:35:15;5.90;;;2.90;;
64110;SDS011;50401;48.188;11.566;2023-02-26T15:37:46;4.03;;;2.50;;
64110;SDS011;50401;48.188;11.566;2023-02-26T15:40:14;5.10;;;2.45;;
64110;SDS011;50401;48.188;11.566;2023-02-26T15:42:40;3.60;;;2.30;;
64110;SDS011;50401;48.188;11.566;2023-02-26T15:48:11;8.98;;;3.00;;
64110;SDS011;50401;48.188;11.566;2023-02-26T15:50:41;5.25;;;2.90;;
64110;SDS011;50401;48.188;11.566;2023-02-26T15:53:11;3.55;;;2.40;;
64110;SDS011;50401;48.188;11.566;2023-02-26T15:55:46;7.22;;;2.75;;
64110;SDS011;50401;48.188;11.566;2023-02-26T15:58:19;4.53;;;2.60;;
64110;SDS011;50401;48.188;11.566;2023-02-26T16:00:51;8.32;;;3.08;;
64110;SDS011;50401;48.188;11.566;2023-02-26T16:03:23;5.30;;;2.97;;
64110;SDS011;50401;48.188;11.566;2023-02-26T16:05:50;3.65;;;1.95;;
64110;SDS011;50401;48.188;11.566;2023-02-26T16:08:18;7.10;;;2.47;;
64110;SDS011;50401;48.188;11.566;2023-02-26T16:10:44;6.18;;;2.60;;
64110;SDS011;50401;48.188;11.566;2023-02-26T16:13:12;4.70;;;1.60;;
64110;SDS011;50401;48.188;11.566;2023-02-26T16:15:40;5.07;;;2.60;;
64110;SDS011;50401;48.188;11.566;2023-02-26T16:18:07;4.45;;;1.90;;
64110;SDS011;50401;48.188;11.566;2023-02-26T16:20:39;3.78;;;2.33;;
64110;SDS011;50401;48.188;11.566;2023-02-26T16:23:17;5.95;;;2.90;;
64110;SDS011;50401;48.188;11.566;2023-02-26T16:28:15;6.72;;;3.35;;
64110;SDS011;50401;48.188;11.566;2023-02-26T16:30:46;14.30;;;3.17;;
64110;SDS011;50401;48.188;11.566;2023-02-26T16:33:16;3.08;;;2.50;;
64110;SDS011;50401;48.188;11.566;2023-02-26T16:35:45;5.75;;;3.30;;
64110;SDS011;50401;48.188;11.566;2023-02-26T16:38:17;3.65;;;2.22;;
64110;SDS011;50401;48.188;11.566;2023-02-26T16:40:58;2.60;;;1.73;;
64110;SDS011;50401;48.188;11.566;2023-02-26T16:43:31;2.40;;;1.73;;
64110;SDS011;50401;48.188;11.566;2023-02-26T16:46:00;2.28;;;1.55;;
64110;SDS011;50401;48.188;11.566;2023-02-26T16:48:30;12.05;;;2.58;;
64110;SDS011;50401;48.188;11.566;2023-02-26T16:53:35;4.85;;;2.47;;
64110;SDS011;50401;48.188;11.566;2023-02-26T16:56:10;4.20;;;2.58;;
64110;SDS011;50401;48.188;11.566;2023-02-26T16:58:46;5.10;;;2.60;;
64110;SDS011;50401;48.188;11.566;2023-02-26T17:01:16;6.03;;;3.15;;
64110;SDS011;50401;48.188;11.566;2023-02-26T17:03:47;6.10;;;2.85;;
64110;SDS011;50401;48.188;11.566;2023-02-26T17:06:19;5.32;;;2.88;;
64110;SDS011;50401;48.188;11.566;2023-02-26T17:08:49;10.15;;;4.03;;
64110;SDS011;50401;48.188;11.566;2023-02-26T17:11:29;4.05;;;2.58;;
64110;SDS011;50401;48.188;11.566;2023-02-26T17:16:46;5.53;;;2.33;;
64110;SDS011;50401;48.188;11.566;2023-02-26T17:19:12;4.40;;;2.78;;
64110;SDS011;50401;48.188;11.566;2023-02-26T17:21:40;3.63;;;2.42;;
64110;SDS011;50401;48.188;11.566;2023-02-26T17:24:10;3.00;;;2.22;;
64110;SDS011;50401;48.188;11.566;2023-02-26T17:26:42;4.88;;;2.10;;
64110;SDS011;50401;48.188;11.566;2023-02-26T17:29:11;4.72;;;2.50;;
64110;SDS011;50401;48.188;11.566;2023-02-26T17:31:43;3.22;;;2.08;;
64110;SDS011;50401;48.188;11.566;2023-02-26T17:34:09;1.98;;;1.23;;
64110;SDS011;50401;48.188;11.566;2023-02-26T17:36:35;4.65;;;2.33;;
64110;SDS011;50401;48.188;11.566;2023-02-26T17:39:01;3.33;;;1.80;;
64110;SDS011;50401;48.188;11.566;2023-02-26T17:41:26;2.88;;;1.90;;
64110;SDS011;50401;48.188;11.566;2023-02-26T17:43:52;3.72;;;2.40;;
64110;SDS011;50401;48.188;11.566;2023-02-26T17:46:18;3.05;;;2.10;;
64110;SDS011;50401;48.188;11.566;2023-02-26T17:48:43;4.47;;;2.03;;
64110;SDS011;50401;48.188;11.566;2023-02-26T17:51:09;3.92;;;1.52;;
64110;SDS011;50401;48.188;11.566;2023-02-26T17:53:35;2.92;;;1.80;;
64110;SDS011;50401;48.188;11.566;2023-02-26T17:56:07;3.90;;;2.30;;
64110;SDS011;50401;48.188;11.566;2023-02-26T17:58:35;5.18;;;1.77;;
64110;SDS011;50401;48.188;11.566;2023-02-26T18:01:01;5.40;;;2.17;;
64110;SDS011;50401;48.188;11.566;2023-02-26T18:03:28;3.78;;;1.95;;
64110;SDS011;50401;48.188;11.566;2023-02-26T18:05:54;2.75;;;1.92;;
64110;SDS011;50401;48.188;11.566;2023-02-26T18:08:25;4.38;;;2.38;;
64110;SDS011;50401;48.188;11.566;2023-02-26T18:10:52;6.68;;;2.45;;
64110;SDS011;50401;48.188;11.566;2023-02-26T18:13:19;4.10;;;2.67;;
64110;SDS011;50401;48.188;11.566;2023-02-26T18:15:45;3.45;;;2.10;;
64110;SDS011;50401;48.188;11.566;2023-02-26T18:18:12;6.47;;;3.15;;
64110;SDS011;50401;48.188;11.566;2023-02-26T18:20:38;3.22;;;2.05;;
64110;SDS011;50401;48.188;11.566;2023-02-26T18:23:04;4.05;;;2.17;;